createdAt,value
2018-09-15T00:11:57.313Z,34.07
2018-09-15T00:14:30.394Z,26.07
2018-09-15T00:17:03.204Z,26.43
2018-09-15T00:19:36.197Z,28.67
2018-09-15T00:22:09.037Z,29.70
2018-09-15T00:24:41.962Z,27.60
2018-09-15T00:27:14.977Z,27.90
2018-09-15T00:29:48.661Z,28.87
2018-09-15T00:32:22.627Z,30.80
2018-09-15T00:34:55.649Z,36.47
2018-09-15T00:37:28.725Z,36.27
2018-09-15T00:40:01.766Z,32.33
2018-09-15T00:42:34.840Z,32.43
2018-09-15T00:45:08.116Z,38.13
2018-09-15T00:47:41.874Z,36.80
2018-09-15T00:50:15.213Z,42.33
2018-09-15T00:52:48.105Z,39.33
2018-09-15T00:55:21.290Z,42.97
2018-09-15T00:57:54.512Z,39.87
2018-09-15T01:00:27.837Z,40.67
2018-09-15T01:03:03.513Z,45.40
2018-09-15T01:05:36.741Z,47.03
2018-09-15T01:08:12.744Z,46.77
2018-09-15T01:10:45.720Z,47.70
2018-09-15T01:13:19.313Z,45.67
2018-09-15T01:15:54.941Z,41.90
2018-09-15T01:18:29.898Z,43.67
2018-09-15T01:21:06.511Z,43.60
2018-09-15T01:23:40.370Z,43.40
2018-09-15T01:26:15.917Z,47.03
2018-09-15T01:28:52.765Z,46.37
2018-09-15T01:31:26.854Z,43.97
2018-09-15T01:34:00.397Z,46.37
2018-09-15T01:36:33.570Z,49.43
2018-09-15T01:39:11.262Z,48.97
2018-09-15T01:41:44.276Z,50.33
2018-09-15T01:44:19.251Z,52.50
2018-09-15T01:46:52.171Z,57.23
2018-09-15T01:49:26.755Z,54.17
2018-09-15T01:51:59.911Z,59.17
2018-09-15T01:54:32.990Z,56.37
2018-09-15T01:57:06.261Z,57.83
2018-09-15T01:59:39.172Z,56.90
2018-09-15T02:02:14.368Z,55.30
2018-09-15T02:04:48.465Z,57.67
2018-09-15T02:07:22.306Z,60.40
2018-09-15T02:09:56.576Z,54.60
2018-09-15T02:12:29.618Z,53.07
2018-09-15T02:15:02.809Z,56.93
2018-09-15T02:17:36.124Z,57.47
2018-09-15T02:20:09.173Z,58.47
2018-09-15T02:22:42.270Z,64.50
2018-09-15T02:25:15.508Z,63.17
2018-09-15T02:27:48.295Z,64.30
2018-09-15T02:30:21.708Z,60.03
2018-09-15T02:32:55.820Z,62.60
2018-09-15T02:35:29.925Z,59.43
2018-09-15T02:38:04.557Z,63.23
2018-09-15T02:40:37.569Z,66.33
2018-09-15T02:43:10.865Z,72.80
2018-09-15T02:45:46.531Z,61.53
2018-09-15T02:48:19.252Z,64.53
2018-09-15T02:50:53.747Z,63.67
2018-09-15T02:53:27.065Z,65.73
2018-09-15T02:56:04.393Z,61.83
2018-09-15T02:58:37.673Z,56.67
2018-09-15T03:01:10.938Z,60.20
2018-09-15T03:03:43.780Z,62.23
2018-09-15T03:06:17.016Z,69.83
2018-09-15T03:08:50.891Z,86.00
2018-09-15T03:11:25.809Z,75.53
2018-09-15T03:13:59.144Z,69.47
2018-09-15T03:16:32.100Z,75.47
2018-09-15T03:19:09.379Z,81.33
2018-09-15T03:21:51.848Z,90.17
2018-09-15T03:24:24.701Z,80.90
2018-09-15T03:26:57.765Z,94.32
2018-09-15T03:29:31.587Z,83.60
2018-09-15T03:32:05.397Z,74.10
2018-09-15T03:34:38.168Z,70.73
2018-09-15T03:37:11.170Z,63.83
2018-09-15T03:39:47.625Z,60.27
2018-09-15T03:42:21.534Z,60.30
2018-09-15T03:44:59.305Z,72.67
2018-09-15T03:47:32.315Z,64.90
2018-09-15T03:50:05.568Z,68.83
2018-09-15T03:52:38.497Z,73.47
2018-09-15T03:55:11.520Z,70.57
2018-09-15T03:57:52.186Z,60.37
2018-09-15T04:00:24.861Z,66.00
2018-09-15T04:02:58.510Z,66.57
2018-09-15T04:05:31.431Z,62.67
2018-09-15T04:08:04.475Z,64.43
2018-09-15T04:10:38.009Z,62.90
2018-09-15T04:13:11.322Z,62.13
2018-09-15T04:15:44.553Z,60.87
2018-09-15T04:18:21.911Z,61.73
2018-09-15T04:20:54.910Z,65.73
2018-09-15T04:23:29.047Z,75.73
2018-09-15T04:26:02.633Z,75.37
2018-09-15T04:28:35.924Z,76.23
2018-09-15T04:31:09.250Z,66.20
2018-09-15T04:33:45.401Z,70.07
2018-09-15T04:36:18.972Z,67.80
2018-09-15T04:38:52.628Z,66.43
2018-09-15T04:41:27.048Z,66.57
2018-09-15T04:44:01.193Z,67.93
2018-09-15T04:46:34.080Z,65.13
2018-09-15T04:49:08.883Z,60.97
2018-09-15T04:51:42.020Z,65.97
2018-09-15T04:54:15.157Z,65.80
2018-09-15T04:56:48.310Z,56.90
2018-09-15T04:59:21.911Z,62.37
2018-09-15T05:01:59.468Z,64.43
2018-09-15T05:04:33.798Z,61.00
2018-09-15T05:07:08.025Z,61.47
2018-09-15T05:09:41.011Z,66.90
2018-09-15T05:12:14.439Z,63.43
2018-09-15T05:14:48.101Z,61.00
2018-09-15T05:17:21.332Z,68.00
2018-09-15T05:19:54.373Z,65.40
2018-09-15T05:22:27.223Z,78.37
2018-09-15T05:25:00.241Z,60.93
2018-09-15T05:27:33.602Z,65.00
2018-09-15T05:30:06.874Z,65.07
2018-09-15T05:32:47.218Z,62.53
2018-09-15T05:35:20.477Z,60.50
2018-09-15T05:37:53.579Z,59.90
2018-09-15T05:40:26.888Z,51.17
2018-09-15T05:42:59.939Z,54.50
2018-09-15T05:45:32.928Z,58.00
2018-09-15T05:48:05.888Z,53.23
2018-09-15T05:50:38.841Z,49.10
2018-09-15T05:53:12.057Z,49.10
2018-09-15T05:55:45.168Z,52.73
2018-09-15T05:58:22.286Z,49.17
2018-09-15T06:00:56.258Z,47.00
2018-09-15T06:03:29.035Z,47.30
2018-09-15T06:06:08.583Z,46.00
2018-09-15T06:08:41.372Z,41.70
2018-09-15T06:11:17.352Z,43.97
2018-09-15T06:13:51.011Z,46.63
2018-09-15T06:16:24.812Z,47.67
2018-09-15T06:19:02.460Z,43.07
2018-09-15T06:21:35.741Z,39.23
2018-09-15T06:24:09.112Z,37.00
2018-09-15T06:26:42.174Z,35.30
2018-09-15T06:29:15.358Z,36.00
2018-09-15T06:31:48.580Z,32.80
2018-09-15T06:34:21.944Z,29.17
2018-09-15T06:36:54.969Z,30.30
2018-09-15T06:39:28.284Z,35.10
2018-09-15T06:42:01.314Z,31.13
2018-09-15T06:44:34.702Z,31.00
2018-09-15T06:47:08.099Z,34.83
2018-09-15T06:49:41.412Z,33.93
2018-09-15T06:52:14.300Z,36.80
2018-09-15T06:54:52.392Z,36.17
2018-09-15T06:57:25.441Z,35.27
2018-09-15T06:59:58.201Z,31.83
2018-09-15T07:02:38.766Z,37.78
2018-09-15T07:05:11.497Z,35.03
2018-09-15T07:07:44.424Z,40.10
2018-09-15T07:10:19.017Z,42.60
2018-09-15T07:12:54.674Z,43.30
2018-09-15T07:15:28.446Z,46.35
2018-09-15T07:18:01.401Z,39.43
2018-09-15T07:20:34.600Z,43.43
2018-09-15T07:23:07.634Z,43.37
2018-09-15T07:25:41.224Z,43.23
2018-09-15T07:28:14.191Z,47.10
2018-09-15T07:30:47.390Z,48.03
2018-09-15T07:33:20.116Z,50.83
2018-09-15T07:35:54.057Z,53.47
2018-09-15T07:38:27.140Z,51.97
2018-09-15T07:41:00.702Z,53.67
2018-09-15T07:43:36.628Z,57.90
2018-09-15T07:46:09.717Z,59.27
2018-09-15T07:48:42.963Z,57.87
2018-09-15T07:51:15.772Z,60.20
2018-09-15T07:53:49.227Z,77.17
2018-09-15T07:56:23.573Z,71.20
2018-09-15T07:58:57.256Z,72.30
2018-09-15T08:01:30.492Z,65.23
2018-09-15T08:04:04.519Z,59.80
2018-09-15T08:06:43.442Z,58.00
2018-09-15T08:09:16.722Z,60.63
2018-09-15T08:11:49.823Z,50.23
2018-09-15T08:14:23.277Z,44.43
2018-09-15T08:16:56.129Z,42.13
2018-09-15T08:19:29.586Z,34.27
2018-09-15T08:22:02.740Z,27.57
2018-09-15T08:24:35.688Z,25.97
2018-09-15T08:27:09.956Z,26.57
2018-09-15T08:29:44.929Z,25.33
2018-09-15T08:32:17.832Z,22.53
2018-09-15T08:35:00.267Z,21.50
2018-09-15T08:37:41.714Z,23.23
2018-09-15T08:40:14.795Z,24.20
2018-09-15T08:42:47.832Z,22.20
2018-09-15T08:45:21.530Z,24.83
2018-09-15T08:47:54.466Z,22.77
2018-09-15T08:50:27.438Z,24.30
2018-09-15T08:53:00.458Z,25.03
2018-09-15T08:55:43.253Z,22.53
2018-09-15T08:58:15.983Z,21.33
2018-09-15T09:00:48.954Z,23.97
2018-09-15T09:03:23.160Z,25.20
2018-09-15T09:05:55.880Z,22.83
2018-09-15T09:08:28.885Z,23.32
2018-09-15T09:11:01.594Z,23.63
2018-09-15T09:13:34.481Z,22.90
2018-09-15T09:16:07.429Z,24.23
2018-09-15T09:18:40.907Z,22.57
2018-09-15T09:21:14.024Z,23.40
2018-09-15T09:23:46.943Z,24.83
2018-09-15T09:26:20.665Z,21.93
2018-09-15T09:28:54.844Z,23.27
2018-09-15T09:31:27.718Z,23.27
2018-09-15T09:34:00.654Z,22.53
2018-09-15T09:36:33.673Z,25.25
2018-09-15T09:39:09.440Z,25.63
2018-09-15T09:41:42.481Z,21.53
2018-09-15T09:44:15.910Z,21.53
2018-09-15T09:46:48.614Z,24.97
2018-09-15T09:49:22.030Z,20.90
2018-09-15T09:51:54.701Z,22.57
2018-09-15T09:54:29.040Z,21.60
2018-09-15T09:57:06.003Z,25.77
2018-09-15T09:59:38.892Z,27.10
2018-09-15T10:02:16.857Z,25.90
2018-09-15T10:04:53.738Z,27.23
2018-09-15T10:07:26.641Z,21.20
2018-09-15T10:09:59.605Z,21.53
2018-09-15T10:12:32.387Z,27.00
2018-09-15T10:15:05.745Z,24.63
2018-09-15T10:17:38.705Z,26.20
2018-09-15T10:20:11.934Z,22.50
2018-09-15T10:22:44.714Z,24.30
2018-09-15T10:25:20.901Z,23.60
2018-09-15T10:27:53.954Z,24.10
2018-09-15T10:30:27.076Z,29.27
2018-09-15T10:33:04.209Z,28.80
2018-09-15T10:35:37.020Z,26.37
2018-09-15T10:38:09.974Z,27.87
2018-09-15T10:40:42.950Z,24.13
2018-09-15T10:43:15.962Z,28.90
2018-09-15T10:45:50.392Z,24.23
2018-09-15T10:48:24.514Z,23.77
2018-09-15T10:50:57.734Z,24.27
2018-09-15T10:53:32.742Z,24.40
2018-09-15T10:56:11.314Z,22.10
2018-09-15T10:58:44.079Z,24.17
2018-09-15T11:01:18.325Z,27.63
2018-09-15T11:03:51.442Z,21.40
2018-09-15T11:06:25.438Z,32.63
2018-09-15T11:09:03.470Z,21.53
2018-09-15T11:11:44.691Z,19.27
2018-09-15T11:14:24.537Z,18.73
2018-09-15T11:17:12.181Z,20.03
2018-09-15T11:19:53.063Z,27.37
2018-09-15T11:22:32.962Z,19.03
2018-09-15T11:25:15.817Z,21.17
2018-09-15T11:27:49.544Z,20.37
2018-09-15T11:30:23.067Z,22.40
2018-09-15T11:33:06.036Z,20.57
2018-09-15T11:35:47.860Z,22.43
2018-09-15T11:38:28.204Z,25.27
2018-09-15T11:41:01.275Z,21.47
2018-09-15T11:43:37.991Z,23.47
2018-09-15T11:46:10.877Z,22.47
2018-09-15T11:48:43.944Z,24.40
2018-09-15T11:51:16.847Z,21.70
2018-09-15T11:53:50.368Z,23.13
2018-09-15T11:56:23.203Z,23.77
2018-09-15T11:58:57.348Z,23.20
2018-09-15T12:01:30.298Z,22.40
2018-09-15T12:04:03.183Z,24.72
2018-09-15T12:06:36.919Z,18.10
2018-09-15T12:09:11.663Z,19.00
2018-09-15T12:11:44.540Z,30.53
2018-09-15T12:14:18.559Z,22.30
2018-09-15T12:16:51.579Z,19.80
2018-09-15T12:19:25.357Z,24.57
2018-09-15T12:22:04.501Z,22.17
2018-09-15T12:24:37.784Z,24.60
2018-09-15T12:27:11.003Z,18.53
2018-09-15T12:29:43.930Z,22.30
2018-09-15T12:32:17.206Z,30.90
2018-09-15T12:34:50.240Z,21.57
2018-09-15T12:37:23.938Z,20.07
2018-09-15T12:39:56.974Z,25.70
2018-09-15T12:42:31.344Z,19.47
2018-09-15T12:45:06.747Z,24.40
2018-09-15T12:47:42.229Z,19.53
2018-09-15T12:50:15.497Z,18.27
2018-09-15T12:52:48.891Z,22.80
2018-09-15T12:55:23.492Z,23.73
2018-09-15T12:57:56.610Z,20.83
2018-09-15T13:00:33.241Z,22.90
2018-09-15T13:03:08.458Z,20.67
2018-09-15T13:05:41.711Z,26.20
2018-09-15T13:08:14.824Z,31.80
2018-09-15T13:10:51.629Z,25.37
2018-09-15T13:13:25.752Z,24.30
2018-09-15T13:15:58.971Z,24.77
2018-09-15T13:18:36.257Z,29.70
2018-09-15T13:21:12.021Z,25.40
2018-09-15T13:23:49.134Z,26.50
2018-09-15T13:26:25.606Z,28.30
2018-09-15T13:29:02.354Z,22.77
2018-09-15T13:31:39.296Z,22.03
2018-09-15T13:34:16.722Z,23.30
2018-09-15T13:36:52.745Z,27.13
2018-09-15T13:39:30.481Z,29.20
2018-09-15T13:42:10.232Z,24.10
2018-09-15T13:44:47.949Z,23.50
2018-09-15T13:47:25.052Z,25.17
2018-09-15T13:50:01.373Z,31.33
2018-09-15T13:52:35.847Z,31.30
2018-09-15T13:55:12.969Z,28.60
2018-09-15T13:57:49.213Z,36.58
2018-09-15T14:00:25.207Z,18.63
2018-09-15T14:03:01.820Z,21.03
2018-09-15T14:05:37.132Z,27.73
2018-09-15T14:08:14.053Z,18.60
2018-09-15T14:10:49.949Z,15.50
2018-09-15T14:13:26.752Z,20.43
2018-09-15T14:16:03.280Z,17.50
2018-09-15T14:18:39.587Z,17.47
2018-09-15T14:21:15.976Z,22.67
2018-09-15T14:23:52.034Z,19.60
2018-09-15T14:26:28.261Z,17.70
2018-09-15T14:29:08.076Z,17.37
2018-09-15T14:31:44.515Z,18.73
2018-09-15T14:34:21.487Z,18.73
2018-09-15T14:36:54.648Z,17.37
2018-09-15T14:39:31.721Z,18.90
2018-09-15T14:42:07.563Z,16.60
2018-09-15T14:44:43.271Z,19.13
2018-09-15T14:47:20.880Z,18.43
2018-09-15T14:49:58.091Z,15.83
2018-09-15T14:52:34.121Z,17.67
2018-09-15T14:55:10.655Z,16.00
2018-09-15T14:57:51.181Z,14.80
2018-09-15T15:00:28.513Z,17.43
2018-09-15T15:03:09.883Z,17.63
2018-09-15T15:05:43.832Z,19.40
2018-09-15T15:08:20.035Z,16.30
2018-09-15T15:10:58.308Z,32.40
2018-09-15T15:13:33.496Z,13.60
2018-09-15T15:16:11.335Z,15.83
2018-09-15T15:18:47.621Z,14.33
2018-09-15T15:21:23.669Z,16.67
2018-09-15T15:23:59.885Z,24.17
2018-09-15T15:26:36.177Z,13.60
2018-09-15T15:29:14.359Z,18.63
2018-09-15T15:31:50.174Z,18.37
2018-09-15T15:34:25.980Z,17.67
2018-09-15T15:37:02.850Z,15.17
2018-09-15T15:39:39.055Z,13.40
2018-09-15T15:42:19.370Z,17.10
2018-09-15T15:44:55.289Z,12.40
2018-09-15T15:47:32.098Z,15.10
2018-09-15T15:50:11.615Z,14.47
2018-09-15T15:52:48.317Z,15.53
2018-09-15T15:55:24.806Z,15.97
2018-09-15T15:58:03.994Z,15.97
2018-09-15T16:00:39.635Z,16.57
2018-09-15T16:03:15.492Z,17.20
2018-09-15T16:05:51.732Z,16.10
2018-09-15T16:08:24.857Z,13.93
2018-09-15T16:11:01.801Z,14.57
2018-09-15T16:13:38.852Z,19.97
2018-09-15T16:16:18.370Z,15.10
2018-09-15T16:18:58.880Z,15.00
2018-09-15T16:21:35.672Z,17.53
2018-09-15T16:24:12.232Z,15.77
2018-09-15T16:26:50.744Z,16.67
2018-09-15T16:29:27.498Z,15.17
2018-09-15T16:32:03.106Z,13.47
2018-09-15T16:34:39.857Z,15.60
2018-09-15T16:37:17.668Z,17.12
2018-09-15T16:39:51.035Z,16.43
2018-09-15T16:42:24.094Z,16.17
2018-09-15T16:45:01.370Z,17.63
2018-09-15T16:47:55.650Z,16.87
2018-09-15T16:50:37.096Z,12.50
2018-09-15T16:53:16.912Z,15.97
2018-09-15T16:55:49.957Z,17.13
2018-09-15T16:58:23.239Z,13.53
2018-09-15T17:00:56.540Z,13.63
2018-09-15T17:03:29.791Z,14.13
2018-09-15T17:06:03.072Z,13.10
2018-09-15T17:08:36.417Z,19.57
2018-09-15T17:11:09.622Z,16.00
2018-09-15T17:13:47.685Z,13.23
2018-09-15T17:16:21.051Z,12.97
2018-09-15T17:18:55.294Z,12.67
2018-09-15T17:21:28.295Z,17.67
2018-09-15T17:24:01.264Z,11.50
2018-09-15T17:26:34.286Z,14.60
2018-09-15T17:29:07.214Z,14.07
2018-09-15T17:31:40.280Z,16.73
2018-09-15T17:34:14.355Z,15.17
2018-09-15T17:36:47.679Z,12.80
2018-09-15T17:39:20.641Z,13.37
2018-09-15T17:41:53.610Z,12.93
2018-09-15T17:44:26.717Z,14.23
2018-09-15T17:47:00.102Z,11.40
2018-09-15T17:49:33.892Z,12.37
2018-09-15T17:52:07.190Z,14.77
2018-09-15T17:54:40.159Z,16.53
2018-09-15T17:57:13.513Z,12.93
2018-09-15T17:59:46.809Z,11.73
2018-09-15T18:02:20.804Z,11.67
2018-09-15T18:04:54.365Z,9.50
2018-09-15T18:07:27.329Z,9.17
2018-09-15T18:10:00.452Z,9.07
2018-09-15T18:12:36.513Z,11.10
2018-09-15T18:15:15.156Z,13.77
2018-09-15T18:17:54.721Z,10.33
2018-09-15T18:20:29.913Z,12.67
2018-09-15T18:23:06.922Z,10.43
2018-09-15T18:25:43.114Z,12.33
2018-09-15T18:28:20.205Z,13.77
2018-09-15T18:30:53.316Z,12.30
2018-09-15T18:33:26.377Z,11.55
2018-09-15T18:36:01.154Z,15.13
2018-09-15T18:38:34.169Z,10.40
2018-09-15T18:41:07.433Z,9.73
2018-09-15T18:43:40.368Z,11.37
2018-09-15T18:46:13.377Z,11.17
2018-09-15T18:48:53.852Z,13.30
2018-09-15T18:51:27.305Z,11.23
2018-09-15T18:54:00.879Z,8.47
2018-09-15T18:56:41.158Z,10.17
2018-09-15T18:59:14.713Z,8.93
2018-09-15T19:01:47.894Z,10.90
2018-09-15T19:04:20.873Z,9.03
2018-09-15T19:06:55.101Z,11.40
2018-09-15T19:09:29.352Z,10.10
2018-09-15T19:12:02.260Z,12.40
2018-09-15T19:14:35.305Z,14.60
2018-09-15T19:17:08.520Z,11.40
2018-09-15T19:19:41.570Z,10.90
2018-09-15T19:22:14.820Z,12.43
2018-09-15T19:24:47.744Z,11.63
2018-09-15T19:27:21.481Z,11.90
2018-09-15T19:29:54.612Z,14.17
2018-09-15T19:32:28.406Z,13.00
2018-09-15T19:35:05.477Z,13.60
2018-09-15T19:37:38.824Z,12.73
2018-09-15T19:40:13.263Z,10.17
2018-09-15T19:42:46.799Z,9.50
2018-09-15T19:45:20.002Z,14.00
2018-09-15T19:47:54.337Z,16.97
2018-09-15T19:50:32.371Z,13.47
2018-09-15T19:53:09.110Z,13.00
2018-09-15T19:55:44.100Z,12.00
2018-09-15T19:58:19.195Z,11.85
2018-09-15T20:00:57.919Z,11.53
2018-09-15T20:03:39.284Z,11.75
2018-09-15T20:06:14.301Z,10.30
2018-09-15T20:08:48.837Z,11.20
2018-09-15T20:11:25.576Z,10.83
2018-09-15T20:14:02.785Z,12.73
2018-09-15T20:16:36.933Z,14.20
2018-09-15T20:19:07.262Z,14.98
2018-09-15T20:21:37.560Z,13.28
2018-09-15T20:24:11.437Z,12.63
2018-09-15T20:26:45.186Z,9.43
2018-09-15T20:29:20.766Z,10.00
2018-09-15T20:31:54.906Z,12.85
2018-09-15T20:34:33.563Z,14.83
2018-09-15T20:37:15.186Z,10.23
2018-09-15T20:39:49.784Z,9.23
2018-09-15T20:42:22.755Z,13.20
2018-09-15T20:44:58.059Z,9.77
2018-09-15T20:47:31.825Z,9.50
2018-09-15T20:50:11.796Z,9.13
2018-09-15T20:52:44.931Z,13.28
2018-09-15T20:55:18.580Z,8.60
2018-09-15T20:57:54.013Z,7.55
2018-09-15T21:00:29.090Z,15.65
2018-09-15T21:03:04.200Z,7.47
2018-09-15T21:05:37.561Z,13.08
2018-09-15T21:08:10.684Z,15.68
2018-09-15T21:10:43.908Z,12.75
2018-09-15T21:13:16.816Z,11.48
2018-09-15T21:15:49.661Z,14.33
2018-09-15T21:18:22.646Z,12.78
2018-09-15T21:20:55.775Z,7.73
2018-09-15T21:23:28.664Z,12.77
2018-09-15T21:26:02.224Z,15.70
2018-09-15T21:28:35.129Z,7.50
2018-09-15T21:31:08.311Z,9.03
2018-09-15T21:33:41.506Z,9.77
2018-09-15T21:36:14.853Z,8.38
2018-09-15T21:38:50.648Z,9.50
2018-09-15T21:41:23.920Z,7.80
2018-09-15T21:43:56.960Z,11.73
2018-09-15T21:46:29.861Z,7.83
2018-09-15T21:49:03.562Z,12.43
2018-09-15T21:51:36.907Z,9.63
2018-09-15T21:54:10.031Z,13.37
2018-09-15T21:56:44.975Z,11.13
2018-09-15T21:59:18.292Z,10.30
2018-09-15T22:01:51.623Z,7.40
2018-09-15T22:04:25.333Z,8.50
2018-09-15T22:06:58.288Z,8.73
2018-09-15T22:09:31.490Z,8.60
2018-09-15T22:12:04.809Z,6.90
2018-09-15T22:14:37.796Z,12.13
2018-09-15T22:17:11.245Z,6.83
2018-09-15T22:19:45.587Z,6.53
2018-09-15T22:22:18.823Z,7.80
2018-09-15T22:24:51.979Z,5.33
2018-09-15T22:27:25.200Z,9.97
2018-09-15T22:30:01.612Z,11.20
2018-09-15T22:32:36.725Z,11.08
2018-09-15T22:35:10.106Z,14.97
2018-09-15T22:37:43.270Z,12.17
2018-09-15T22:40:16.773Z,8.43
2018-09-15T22:42:52.076Z,8.43
2018-09-15T22:45:25.425Z,15.70
2018-09-15T22:48:01.265Z,9.07
2018-09-15T22:50:35.014Z,7.33
2018-09-15T22:53:10.309Z,6.83
2018-09-15T22:55:43.807Z,11.17
2018-09-15T22:58:20.163Z,11.57
2018-09-15T23:00:57.281Z,15.10
2018-09-15T23:03:31.860Z,15.37
2018-09-15T23:06:05.883Z,12.87
2018-09-15T23:08:44.194Z,15.60
2018-09-15T23:11:19.903Z,16.53
2018-09-15T23:13:52.976Z,23.67
2018-09-15T23:16:25.939Z,18.83
2018-09-15T23:18:58.981Z,21.60
2018-09-15T23:21:39.516Z,21.53
2018-09-15T23:24:20.054Z,17.60
2018-09-15T23:27:00.383Z,19.23
2018-09-15T23:29:33.877Z,17.60
2018-09-15T23:32:10.594Z,18.63
2018-09-15T23:34:43.791Z,18.83
2018-09-15T23:37:16.782Z,21.00
2018-09-15T23:39:50.215Z,22.37
2018-09-15T23:42:23.102Z,24.80
2018-09-15T23:44:56.090Z,22.77
2018-09-15T23:47:29.199Z,21.80
2018-09-15T23:50:07.820Z,27.10
2018-09-15T23:52:41.223Z,26.40
2018-09-15T23:55:14.656Z,28.87
2018-09-15T23:57:49.586Z,28.47
